Hay Springs, NE (69347)

11:51 AM MDT on September 19, 2014 (GMT -0600)
KCSR/KBPY Radio | Change Station
CLOSE
Current Station
Personal Weather Station
Location: Chadron, NE
Elevation: 3386 ft
Nearby Weather Stations

Elev 3386 ft 42.83 °N, 103.00 °W | Updated 6 minutes ago

Partly Cloudy
Partly Cloudy
78.6 °F
Feels Like 79 °F
N
5.0
Wind Variable Wind from SSW
Gusts 9.0 mph

Today
High -- | Low -- °F
--% Chance of Precip.
Yesterday
High -- | Low -- °F
Precip. -- in
6:34 AM 6:53 PM
Waning Crescent, 18% visible
Pressure 29.79 in
Visibility 10.0 miles
Clouds Clear
Heat Index 79 °F
Dew Point 54 °F
Humidity 42%
Rainfall 0.00 in
Snow Depth Not available.
UV 6 out of 12
Pollen 6.20 out of 12
Air Quality Not available.
Flu Activity Not available.
METAR KCDR 191653Z AUTO 24006KT 10SM CLR 26/13 A2987 RMK AO2 SLP086 T02560128

More Conditions Fewer Conditions

Pressure 29.79 in
Visibility 10.0 miles
Clouds Clear
Heat Index 79 °F
Dew Point 54 °F
Humidity 42%
Rainfall 0.00 in
Snow Depth Not available.
UV 6 out of 12
Pollen 6.20 out of 12
Air Quality Not available.
Flu Activity Not available.
METAR KCDR 191653Z AUTO 24006KT 10SM CLR 26/13 A2987 RMK AO2 SLP086 T02560128

More Conditions Fewer Conditions

10-Day Weather Forecast

Almanac

Astronomy

Sep. 19, 2014 Rise Set
Actual Time 6:34 AM MDT 6:53 PM MDT
Civil Twilight 6:06 AM MDT 7:21 PM MDT
Nautical Twilight 5:33 AM MDT 7:54 PM MDT
Astronomical Twilight 4:59 AM MDT 8:28 PM MDT
Moon 2:17 AM MDT 4:27 PM MDT
Length of Visible Light 13h 14m
Length of Day
12h 18m
Tomorrow will be 2m 53s shorter.
Waning Crescent, 18% of the Moon is Illuminated
Today
Waning Crescent
Sep 24
New
Oct 1
First Quarter
Oct 8
Full
Oct 15
Last Quarter

Today's Extremes

State Highs State Lows

Community

WunderPhotos

Upload Photos

1,754,668 photos uploaded!

Nearby

Snow Depth

Station Depth Elevation
No new snow has been reported.

Earthquake Activity

City Distance Mag. Time & Date
No recent earthquake activity has been reported nearby.
Minimum magnitude displayed is 2.5.

Coastal Water Temperatures

Place Temperature
No Stations Reporting

Nearby Weather Stations